sensor_id;sensor_type;location;lat;lon;timestamp;P1;durP1;ratioP1;P2;durP2;ratioP2
4430;SDS011;2228;48.140;11.488;2023-02-08T00:00:58;24.75;;;10.75;;
4430;SDS011;2228;48.140;11.488;2023-02-08T00:03:25;21.55;;;10.50;;
4430;SDS011;2228;48.140;11.488;2023-02-08T00:05:53;24.25;;;11.10;;
4430;SDS011;2228;48.140;11.488;2023-02-08T00:08:20;20.25;;;9.20;;
4430;SDS011;2228;48.140;11.488;2023-02-08T00:10:47;19.53;;;10.17;;
4430;SDS011;2228;48.140;11.488;2023-02-08T00:13:14;17.70;;;9.33;;
4430;SDS011;2228;48.140;11.488;2023-02-08T00:15:43;21.23;;;9.65;;
4430;SDS011;2228;48.140;11.488;2023-02-08T00:18:11;19.60;;;9.20;;
4430;SDS011;2228;48.140;11.488;2023-02-08T00:20:38;21.10;;;9.70;;
4430;SDS011;2228;48.140;11.488;2023-02-08T00:23:06;19.50;;;8.80;;
4430;SDS011;2228;48.140;11.488;2023-02-08T00:25:33;21.83;;;9.30;;
4430;SDS011;2228;48.140;11.488;2023-02-08T00:28:01;19.65;;;10.00;;
4430;SDS011;2228;48.140;11.488;2023-02-08T00:30:28;21.47;;;10.17;;
4430;SDS011;2228;48.140;11.488;2023-02-08T00:32:56;18.40;;;9.60;;
4430;SDS011;2228;48.140;11.488;2023-02-08T00:35:26;21.98;;;10.93;;
4430;SDS011;2228;48.140;11.488;2023-02-08T00:37:53;21.33;;;10.02;;
4430;SDS011;2228;48.140;11.488;2023-02-08T00:40:20;17.45;;;9.27;;
4430;SDS011;2228;48.140;11.488;2023-02-08T00:42:47;19.17;;;8.70;;
4430;SDS011;2228;48.140;11.488;2023-02-08T00:45:14;20.27;;;8.90;;
4430;SDS011;2228;48.140;11.488;2023-02-08T00:47:41;19.52;;;9.40;;
4430;SDS011;2228;48.140;11.488;2023-02-08T00:50:10;20.27;;;9.68;;
4430;SDS011;2228;48.140;11.488;2023-02-08T00:52:37;21.77;;;10.23;;
4430;SDS011;2228;48.140;11.488;2023-02-08T00:55:05;21.75;;;10.00;;
4430;SDS011;2228;48.140;11.488;2023-02-08T00:57:32;21.98;;;10.23;;
4430;SDS011;2228;48.140;11.488;2023-02-08T00:59:59;20.17;;;9.68;;
4430;SDS011;2228;48.140;11.488;2023-02-08T01:02:27;19.58;;;9.82;;
4430;SDS011;2228;48.140;11.488;2023-02-08T01:04:54;20.15;;;9.30;;
4430;SDS011;2228;48.140;11.488;2023-02-08T01:07:22;18.98;;;9.73;;
4430;SDS011;2228;48.140;11.488;2023-02-08T01:09:49;22.00;;;9.87;;
4430;SDS011;2228;48.140;11.488;2023-02-08T01:12:16;22.05;;;9.95;;
4430;SDS011;2228;48.140;11.488;2023-02-08T01:14:43;19.08;;;9.90;;
4430;SDS011;2228;48.140;11.488;2023-02-08T01:17:10;23.52;;;11.15;;
4430;SDS011;2228;48.140;11.488;2023-02-08T01:19:37;24.45;;;10.52;;
4430;SDS011;2228;48.140;11.488;2023-02-08T01:22:04;20.45;;;10.20;;
4430;SDS011;2228;48.140;11.488;2023-02-08T01:24:32;20.73;;;10.40;;
4430;SDS011;2228;48.140;11.488;2023-02-08T01:26:59;21.85;;;10.38;;
4430;SDS011;2228;48.140;11.488;2023-02-08T01:29:26;23.17;;;10.75;;
4430;SDS011;2228;48.140;11.488;2023-02-08T01:31:53;19.52;;;10.15;;
4430;SDS011;2228;48.140;11.488;2023-02-08T01:34:20;21.60;;;9.20;;
4430;SDS011;2228;48.140;11.488;2023-02-08T01:36:47;22.10;;;10.57;;
4430;SDS011;2228;48.140;11.488;2023-02-08T01:39:14;22.77;;;11.15;;
4430;SDS011;2228;48.140;11.488;2023-02-08T01:41:43;18.52;;;10.32;;
4430;SDS011;2228;48.140;11.488;2023-02-08T01:47:15;24.88;;;10.68;;
4430;SDS011;2228;48.140;11.488;2023-02-08T01:49:42;19.33;;;10.10;;
4430;SDS011;2228;48.140;11.488;2023-02-08T01:52:10;24.08;;;11.10;;
4430;SDS011;2228;48.140;11.488;2023-02-08T01:54:41;22.20;;;11.17;;
4430;SDS011;2228;48.140;11.488;2023-02-08T01:57:12;24.55;;;10.68;;
4430;SDS011;2228;48.140;11.488;2023-02-08T01:59:39;21.15;;;10.43;;
4430;SDS011;2228;48.140;11.488;2023-02-08T02:02:10;24.63;;;11.52;;
4430;SDS011;2228;48.140;11.488;2023-02-08T02:04:40;23.92;;;11.07;;
4430;SDS011;2228;48.140;11.488;2023-02-08T02:07:07;21.63;;;10.75;;
4430;SDS011;2228;48.140;11.488;2023-02-08T02:09:35;21.65;;;10.73;;
4430;SDS011;2228;48.140;11.488;2023-02-08T02:12:07;24.10;;;11.90;;
4430;SDS011;2228;48.140;11.488;2023-02-08T02:14:36;23.27;;;11.48;;
4430;SDS011;2228;48.140;11.488;2023-02-08T02:17:04;26.27;;;12.18;;
4430;SDS011;2228;48.140;11.488;2023-02-08T02:19:36;24.05;;;11.85;;
4430;SDS011;2228;48.140;11.488;2023-02-08T02:22:16;23.42;;;10.80;;
4430;SDS011;2228;48.140;11.488;2023-02-08T02:31:49;24.73;;;11.88;;
4430;SDS011;2228;48.140;11.488;2023-02-08T02:34:29;25.83;;;10.75;;
4430;SDS011;2228;48.140;11.488;2023-02-08T02:37:01;22.13;;;10.50;;
4430;SDS011;2228;48.140;11.488;2023-02-08T02:39:38;24.27;;;11.80;;
4430;SDS011;2228;48.140;11.488;2023-02-08T02:42:09;24.30;;;11.02;;
4430;SDS011;2228;48.140;11.488;2023-02-08T02:45:00;30.25;;;13.07;;
4430;SDS011;2228;48.140;11.488;2023-02-08T02:47:37;26.40;;;11.75;;
4430;SDS011;2228;48.140;11.488;2023-02-08T02:50:11;25.48;;;12.10;;
4430;SDS011;2228;48.140;11.488;2023-02-08T02:52:45;24.85;;;11.77;;
4430;SDS011;2228;48.140;11.488;2023-02-08T02:55:17;25.33;;;11.60;;
4430;SDS011;2228;48.140;11.488;2023-02-08T02:57:48;24.65;;;11.10;;
4430;SDS011;2228;48.140;11.488;2023-02-08T03:00:20;24.10;;;11.40;;
4430;SDS011;2228;48.140;11.488;2023-02-08T03:02:50;24.13;;;11.83;;
4430;SDS011;2228;48.140;11.488;2023-02-08T03:05:19;24.13;;;12.10;;
4430;SDS011;2228;48.140;11.488;2023-02-08T03:10:49;24.80;;;12.53;;
4430;SDS011;2228;48.140;11.488;2023-02-08T03:13:31;25.42;;;11.90;;
4430;SDS011;2228;48.140;11.488;2023-02-08T03:16:15;25.35;;;11.95;;
4430;SDS011;2228;48.140;11.488;2023-02-08T03:18:49;25.20;;;12.23;;
4430;SDS011;2228;48.140;11.488;2023-02-08T03:21:29;22.08;;;11.63;;
4430;SDS011;2228;48.140;11.488;2023-02-08T03:24:08;26.50;;;11.65;;
4430;SDS011;2228;48.140;11.488;2023-02-08T03:26:51;26.00;;;12.25;;
4430;SDS011;2228;48.140;11.488;2023-02-08T03:29:24;26.23;;;12.60;;
4430;SDS011;2228;48.140;11.488;2023-02-08T03:32:03;27.95;;;11.07;;
4430;SDS011;2228;48.140;11.488;2023-02-08T03:34:38;22.05;;;11.02;;
4430;SDS011;2228;48.140;11.488;2023-02-08T03:37:10;24.35;;;11.80;;
4430;SDS011;2228;48.140;11.488;2023-02-08T03:39:40;24.85;;;11.50;;
4430;SDS011;2228;48.140;11.488;2023-02-08T03:42:11;25.15;;;12.02;;
4430;SDS011;2228;48.140;11.488;2023-02-08T03:44:43;22.45;;;11.93;;
4430;SDS011;2228;48.140;11.488;2023-02-08T03:47:16;24.63;;;12.10;;
4430;SDS011;2228;48.140;11.488;2023-02-08T03:49:49;22.75;;;11.32;;
4430;SDS011;2228;48.140;11.488;2023-02-08T03:52:18;24.50;;;11.75;;
4430;SDS011;2228;48.140;11.488;2023-02-08T03:54:47;28.80;;;12.77;;
4430;SDS011;2228;48.140;11.488;2023-02-08T03:57:17;23.25;;;11.70;;
4430;SDS011;2228;48.140;11.488;2023-02-08T03:59:51;22.85;;;11.80;;
4430;SDS011;2228;48.140;11.488;2023-02-08T04:02:22;27.17;;;12.05;;
4430;SDS011;2228;48.140;11.488;2023-02-08T04:04:54;25.63;;;12.05;;
4430;SDS011;2228;48.140;11.488;2023-02-08T04:07:23;23.80;;;11.80;;
4430;SDS011;2228;48.140;11.488;2023-02-08T04:09:50;24.08;;;11.60;;
4430;SDS011;2228;48.140;11.488;2023-02-08T04:12:17;32.63;;;12.82;;
4430;SDS011;2228;48.140;11.488;2023-02-08T04:14:44;26.70;;;12.15;;
4430;SDS011;2228;48.140;11.488;2023-02-08T04:17:11;23.90;;;12.02;;
4430;SDS011;2228;48.140;11.488;2023-02-08T04:19:38;28.15;;;12.68;;
4430;SDS011;2228;48.140;11.488;2023-02-08T04:22:06;27.47;;;11.13;;
4430;SDS011;2228;48.140;11.488;2023-02-08T04:24:33;28.80;;;13.00;;
4430;SDS011;2228;48.140;11.488;2023-02-08T04:27:00;23.55;;;11.80;;
4430;SDS011;2228;48.140;11.488;2023-02-08T04:29:27;26.40;;;12.52;;
4430;SDS011;2228;48.140;11.488;2023-02-08T04:31:54;26.88;;;12.15;;
4430;SDS011;2228;48.140;11.488;2023-02-08T04:34:21;24.55;;;12.40;;
4430;SDS011;2228;48.140;11.488;2023-02-08T04:36:48;25.88;;;12.07;;
4430;SDS011;2228;48.140;11.488;2023-02-08T04:39:16;25.65;;;12.40;;
4430;SDS011;2228;48.140;11.488;2023-02-08T04:41:43;25.95;;;12.10;;
4430;SDS011;2228;48.140;11.488;2023-02-08T04:44:10;28.30;;;12.23;;
4430;SDS011;2228;48.140;11.488;2023-02-08T04:46:37;26.65;;;12.52;;
4430;SDS011;2228;48.140;11.488;2023-02-08T04:49:04;26.98;;;11.70;;
4430;SDS011;2228;48.140;11.488;2023-02-08T04:51:31;27.75;;;12.43;;
4430;SDS011;2228;48.140;11.488;2023-02-08T04:53:57;29.55;;;12.43;;
4430;SDS011;2228;48.140;11.488;2023-02-08T04:56:26;27.05;;;12.80;;
4430;SDS011;2228;48.140;11.488;2023-02-08T04:58:53;29.67;;;12.48;;
4430;SDS011;2228;48.140;11.488;2023-02-08T05:01:20;27.93;;;13.73;;
4430;SDS011;2228;48.140;11.488;2023-02-08T05:03:46;29.85;;;12.00;;
4430;SDS011;2228;48.140;11.488;2023-02-08T05:06:13;28.58;;;12.57;;
4430;SDS011;2228;48.140;11.488;2023-02-08T05:08:40;28.88;;;12.57;;
4430;SDS011;2228;48.140;11.488;2023-02-08T05:11:07;28.23;;;12.30;;
4430;SDS011;2228;48.140;11.488;2023-02-08T05:13:35;28.27;;;13.18;;
4430;SDS011;2228;48.140;11.488;2023-02-08T05:16:02;28.98;;;13.77;;
4430;SDS011;2228;48.140;11.488;2023-02-08T05:18:30;26.23;;;12.60;;
4430;SDS011;2228;48.140;11.488;2023-02-08T05:20:57;29.40;;;13.63;;
4430;SDS011;2228;48.140;11.488;2023-02-08T05:23:26;29.27;;;13.32;;
4430;SDS011;2228;48.140;11.488;2023-02-08T05:25:53;30.47;;;13.57;;
4430;SDS011;2228;48.140;11.488;2023-02-08T05:28:20;26.73;;;13.07;;
4430;SDS011;2228;48.140;11.488;2023-02-08T05:30:49;30.10;;;13.65;;
4430;SDS011;2228;48.140;11.488;2023-02-08T05:33:16;28.15;;;13.57;;
4430;SDS011;2228;48.140;11.488;2023-02-08T05:35:43;28.08;;;13.50;;
4430;SDS011;2228;48.140;11.488;2023-02-08T05:38:10;28.58;;;13.25;;
4430;SDS011;2228;48.140;11.488;2023-02-08T05:40:37;31.13;;;13.73;;
4430;SDS011;2228;48.140;11.488;2023-02-08T05:43:04;26.42;;;13.00;;
4430;SDS011;2228;48.140;11.488;2023-02-08T05:45:31;29.00;;;12.65;;
4430;SDS011;2228;48.140;11.488;2023-02-08T05:47:59;29.15;;;13.20;;
4430;SDS011;2228;48.140;11.488;2023-02-08T05:50:26;32.60;;;14.07;;
4430;SDS011;2228;48.140;11.488;2023-02-08T05:52:53;26.80;;;13.32;;
4430;SDS011;2228;48.140;11.488;2023-02-08T05:55:20;27.27;;;13.23;;
4430;SDS011;2228;48.140;11.488;2023-02-08T05:57:47;31.17;;;14.17;;
4430;SDS011;2228;48.140;11.488;2023-02-08T06:00:15;27.30;;;13.48;;
4430;SDS011;2228;48.140;11.488;2023-02-08T06:02:42;30.40;;;15.87;;
4430;SDS011;2228;48.140;11.488;2023-02-08T06:05:10;30.60;;;13.63;;
4430;SDS011;2228;48.140;11.488;2023-02-08T06:07:37;26.83;;;13.70;;
4430;SDS011;2228;48.140;11.488;2023-02-08T06:10:05;35.10;;;14.93;;
4430;SDS011;2228;48.140;11.488;2023-02-08T06:12:32;27.17;;;14.05;;
4430;SDS011;2228;48.140;11.488;2023-02-08T06:14:59;29.45;;;14.52;;
4430;SDS011;2228;48.140;11.488;2023-02-08T06:17:27;27.90;;;14.52;;
4430;SDS011;2228;48.140;11.488;2023-02-08T06:19:54;32.92;;;14.27;;
4430;SDS011;2228;48.140;11.488;2023-02-08T06:22:23;31.15;;;14.50;;
4430;SDS011;2228;48.140;11.488;2023-02-08T06:24:50;32.17;;;15.15;;
4430;SDS011;2228;48.140;11.488;2023-02-08T06:27:17;31.27;;;14.98;;
4430;SDS011;2228;48.140;11.488;2023-02-08T06:29:44;31.98;;;15.00;;
4430;SDS011;2228;48.140;11.488;2023-02-08T06:32:11;34.22;;;15.23;;
4430;SDS011;2228;48.140;11.488;2023-02-08T06:34:37;29.85;;;14.20;;
4430;SDS011;2228;48.140;11.488;2023-02-08T06:37:04;32.25;;;14.70;;
4430;SDS011;2228;48.140;11.488;2023-02-08T06:39:33;31.70;;;15.37;;
4430;SDS011;2228;48.140;11.488;2023-02-08T06:42:00;31.23;;;14.75;;
4430;SDS011;2228;48.140;11.488;2023-02-08T06:44:26;31.58;;;15.68;;
4430;SDS011;2228;48.140;11.488;2023-02-08T06:46:53;32.28;;;15.80;;
4430;SDS011;2228;48.140;11.488;2023-02-08T06:49:20;35.67;;;16.13;;
4430;SDS011;2228;48.140;11.488;2023-02-08T06:51:47;32.25;;;14.38;;
4430;SDS011;2228;48.140;11.488;2023-02-08T06:54:14;30.65;;;15.52;;
4430;SDS011;2228;48.140;11.488;2023-02-08T06:56:43;33.08;;;14.85;;
4430;SDS011;2228;48.140;11.488;2023-02-08T06:59:10;33.30;;;16.25;;
4430;SDS011;2228;48.140;11.488;2023-02-08T07:01:38;30.77;;;15.55;;
4430;SDS011;2228;48.140;11.488;2023-02-08T07:04:05;31.67;;;15.73;;
4430;SDS011;2228;48.140;11.488;2023-02-08T07:06:32;32.38;;;15.10;;
4430;SDS011;2228;48.140;11.488;2023-02-08T07:08:59;32.95;;;14.45;;
4430;SDS011;2228;48.140;11.488;2023-02-08T07:11:28;34.17;;;16.23;;
4430;SDS011;2228;48.140;11.488;2023-02-08T07:13:56;32.83;;;15.20;;
4430;SDS011;2228;48.140;11.488;2023-02-08T07:16:23;32.22;;;15.63;;
4430;SDS011;2228;48.140;11.488;2023-02-08T07:18:50;33.60;;;14.70;;
4430;SDS011;2228;48.140;11.488;2023-02-08T07:21:17;29.38;;;14.73;;
4430;SDS011;2228;48.140;11.488;2023-02-08T07:23:45;29.00;;;14.75;;
4430;SDS011;2228;48.140;11.488;2023-02-08T07:26:12;29.40;;;14.65;;
4430;SDS011;2228;48.140;11.488;2023-02-08T07:28:39;28.25;;;14.70;;
4430;SDS011;2228;48.140;11.488;2023-02-08T07:31:16;31.70;;;15.60;;
4430;SDS011;2228;48.140;11.488;2023-02-08T07:33:43;26.97;;;14.83;;
4430;SDS011;2228;48.140;11.488;2023-02-08T07:36:11;33.45;;;15.20;;
4430;SDS011;2228;48.140;11.488;2023-02-08T07:38:38;31.30;;;15.40;;
4430;SDS011;2228;48.140;11.488;2023-02-08T07:41:06;29.23;;;14.35;;
4430;SDS011;2228;48.140;11.488;2023-02-08T07:43:34;32.42;;;16.08;;
4430;SDS011;2228;48.140;11.488;2023-02-08T07:46:05;30.95;;;15.02;;
4430;SDS011;2228;48.140;11.488;2023-02-08T07:48:34;30.05;;;14.50;;
4430;SDS011;2228;48.140;11.488;2023-02-08T07:51:02;37.70;;;16.10;;
4430;SDS011;2228;48.140;11.488;2023-02-08T07:53:29;33.65;;;15.05;;
4430;SDS011;2228;48.140;11.488;2023-02-08T07:55:57;28.35;;;14.52;;
4430;SDS011;2228;48.140;11.488;2023-02-08T07:58:24;34.42;;;14.57;;
4430;SDS011;2228;48.140;11.488;2023-02-08T08:00:52;31.30;;;14.45;;
4430;SDS011;2228;48.140;11.488;2023-02-08T08:03:19;30.20;;;14.82;;
4430;SDS011;2228;48.140;11.488;2023-02-08T08:05:48;34.00;;;15.50;;
4430;SDS011;2228;48.140;11.488;2023-02-08T08:08:15;33.03;;;15.20;;
4430;SDS011;2228;48.140;11.488;2023-02-08T08:10:42;29.90;;;15.20;;
4430;SDS011;2228;48.140;11.488;2023-02-08T08:13:10;31.33;;;14.77;;
4430;SDS011;2228;48.140;11.488;2023-02-08T08:15:37;28.58;;;14.82;;
4430;SDS011;2228;48.140;11.488;2023-02-08T08:18:05;33.17;;;16.57;;
4430;SDS011;2228;48.140;11.488;2023-02-08T08:20:32;33.53;;;15.73;;
4430;SDS011;2228;48.140;11.488;2023-02-08T08:23:00;38.05;;;17.20;;
4430;SDS011;2228;48.140;11.488;2023-02-08T08:25:27;37.63;;;17.75;;
4430;SDS011;2228;48.140;11.488;2023-02-08T08:27:54;44.65;;;20.48;;
4430;SDS011;2228;48.140;11.488;2023-02-08T08:30:22;29.42;;;15.25;;
4430;SDS011;2228;48.140;11.488;2023-02-08T08:32:49;32.17;;;15.65;;
4430;SDS011;2228;48.140;11.488;2023-02-08T08:35:16;34.00;;;14.80;;
4430;SDS011;2228;48.140;11.488;2023-02-08T08:37:43;31.17;;;14.77;;
4430;SDS011;2228;48.140;11.488;2023-02-08T08:40:11;31.73;;;13.95;;
4430;SDS011;2228;48.140;11.488;2023-02-08T08:42:38;25.02;;;13.13;;
4430;SDS011;2228;48.140;11.488;2023-02-08T08:45:06;26.63;;;14.32;;
4430;SDS011;2228;48.140;11.488;2023-02-08T08:47:34;28.50;;;13.88;;
4430;SDS011;2228;48.140;11.488;2023-02-08T08:50:01;30.25;;;14.30;;
4430;SDS011;2228;48.140;11.488;2023-02-08T08:52:28;24.13;;;12.40;;
4430;SDS011;2228;48.140;11.488;2023-02-08T08:54:55;28.00;;;13.50;;
4430;SDS011;2228;48.140;11.488;2023-02-08T08:57:23;30.50;;;14.37;;
4430;SDS011;2228;48.140;11.488;2023-02-08T08:59:50;24.98;;;13.18;;
4430;SDS011;2228;48.140;11.488;2023-02-08T09:02:17;28.25;;;13.95;;
4430;SDS011;2228;48.140;11.488;2023-02-08T09:04:44;25.95;;;13.32;;
4430;SDS011;2228;48.140;11.488;2023-02-08T09:07:11;30.13;;;14.03;;
4430;SDS011;2228;48.140;11.488;2023-02-08T09:09:38;32.07;;;14.13;;
4430;SDS011;2228;48.140;11.488;2023-02-08T09:12:05;29.40;;;13.98;;
4430;SDS011;2228;48.140;11.488;2023-02-08T09:14:34;23.30;;;12.70;;
4430;SDS011;2228;48.140;11.488;2023-02-08T09:17:01;22.65;;;12.15;;
4430;SDS011;2228;48.140;11.488;2023-02-08T09:19:30;20.93;;;11.40;;
4430;SDS011;2228;48.140;11.488;2023-02-08T09:21:56;22.83;;;11.83;;
4430;SDS011;2228;48.140;11.488;2023-02-08T09:24:24;26.77;;;12.73;;
4430;SDS011;2228;48.140;11.488;2023-02-08T09:26:51;28.80;;;13.48;;
4430;SDS011;2228;48.140;11.488;2023-02-08T09:29:18;24.25;;;13.20;;
4430;SDS011;2228;48.140;11.488;2023-02-08T09:31:47;24.02;;;12.63;;
4430;SDS011;2228;48.140;11.488;2023-02-08T09:34:13;23.77;;;13.05;;
4430;SDS011;2228;48.140;11.488;2023-02-08T09:36:40;25.40;;;12.90;;
4430;SDS011;2228;48.140;11.488;2023-02-08T09:39:08;25.60;;;12.50;;
4430;SDS011;2228;48.140;11.488;2023-02-08T09:41:47;24.00;;;12.50;;
4430;SDS011;2228;48.140;11.488;2023-02-08T09:44:44;21.02;;;12.32;;
4430;SDS011;2228;48.140;11.488;2023-02-08T09:47:27;23.02;;;12.40;;
4430;SDS011;2228;48.140;11.488;2023-02-08T09:49:57;25.05;;;13.50;;
4430;SDS011;2228;48.140;11.488;2023-02-08T09:52:29;24.67;;;13.20;;
4430;SDS011;2228;48.140;11.488;2023-02-08T09:55:02;23.73;;;12.82;;
4430;SDS011;2228;48.140;11.488;2023-02-08T09:57:35;23.55;;;12.95;;
4430;SDS011;2228;48.140;11.488;2023-02-08T10:00:05;26.65;;;13.75;;
4430;SDS011;2228;48.140;11.488;2023-02-08T10:02:39;27.65;;;13.55;;
4430;SDS011;2228;48.140;11.488;2023-02-08T10:05:09;25.97;;;13.00;;
4430;SDS011;2228;48.140;11.488;2023-02-08T10:07:38;25.07;;;12.40;;
4430;SDS011;2228;48.140;11.488;2023-02-08T10:10:07;26.05;;;13.15;;
4430;SDS011;2228;48.140;11.488;2023-02-08T10:12:42;23.77;;;12.63;;
4430;SDS011;2228;48.140;11.488;2023-02-08T10:15:19;31.73;;;13.97;;
4430;SDS011;2228;48.140;11.488;2023-02-08T10:20:50;21.67;;;12.80;;
4430;SDS011;2228;48.140;11.488;2023-02-08T10:23:31;26.33;;;14.98;;
4430;SDS011;2228;48.140;11.488;2023-02-08T10:26:18;22.80;;;12.80;;
4430;SDS011;2228;48.140;11.488;2023-02-08T10:29:05;22.85;;;13.00;;
4430;SDS011;2228;48.140;11.488;2023-02-08T10:31:49;26.67;;;12.82;;
4430;SDS011;2228;48.140;11.488;2023-02-08T10:34:32;22.90;;;12.80;;
4430;SDS011;2228;48.140;11.488;2023-02-08T10:37:11;22.52;;;13.25;;
4430;SDS011;2228;48.140;11.488;2023-02-08T10:39:40;25.95;;;14.02;;
4430;SDS011;2228;48.140;11.488;2023-02-08T10:42:10;24.00;;;13.30;;
4430;SDS011;2228;48.140;11.488;2023-02-08T10:44:44;24.80;;;13.38;;
4430;SDS011;2228;48.140;11.488;2023-02-08T10:47:31;26.83;;;14.10;;
4430;SDS011;2228;48.140;11.488;2023-02-08T10:50:10;24.00;;;13.13;;
4430;SDS011;2228;48.140;11.488;2023-02-08T10:52:43;27.23;;;14.10;;
4430;SDS011;2228;48.140;11.488;2023-02-08T10:55:11;28.15;;;15.00;;
4430;SDS011;2228;48.140;11.488;2023-02-08T10:57:40;27.37;;;14.00;;
4430;SDS011;2228;48.140;11.488;2023-02-08T11:00:13;25.73;;;13.75;;
4430;SDS011;2228;48.140;11.488;2023-02-08T11:02:44;24.10;;;13.20;;
4430;SDS011;2228;48.140;11.488;2023-02-08T11:05:16;26.02;;;14.77;;
4430;SDS011;2228;48.140;11.488;2023-02-08T11:07:44;25.27;;;12.55;;
4430;SDS011;2228;48.140;11.488;2023-02-08T11:10:13;23.40;;;12.00;;
4430;SDS011;2228;48.140;11.488;2023-02-08T11:12:52;23.20;;;13.75;;
4430;SDS011;2228;48.140;11.488;2023-02-08T11:15:21;25.40;;;13.80;;
4430;SDS011;2228;48.140;11.488;2023-02-08T11:17:55;24.08;;;13.80;;
4430;SDS011;2228;48.140;11.488;2023-02-08T11:20:28;24.50;;;14.17;;
4430;SDS011;2228;48.140;11.488;2023-02-08T11:22:58;26.15;;;14.07;;
4430;SDS011;2228;48.140;11.488;2023-02-08T11:25:31;26.63;;;14.80;;
4430;SDS011;2228;48.140;11.488;2023-02-08T11:28:00;24.33;;;14.10;;
4430;SDS011;2228;48.140;11.488;2023-02-08T11:30:27;27.52;;;14.27;;
4430;SDS011;2228;48.140;11.488;2023-02-08T11:35:52;25.58;;;14.07;;
4430;SDS011;2228;48.140;11.488;2023-02-08T11:38:21;29.05;;;14.13;;
4430;SDS011;2228;48.140;11.488;2023-02-08T11:40:51;24.30;;;14.13;;
4430;SDS011;2228;48.140;11.488;2023-02-08T11:43:22;28.50;;;14.87;;
4430;SDS011;2228;48.140;11.488;2023-02-08T11:45:52;27.20;;;14.35;;
4430;SDS011;2228;48.140;11.488;2023-02-08T11:48:21;28.23;;;14.73;;
4430;SDS011;2228;48.140;11.488;2023-02-08T11:50:53;29.35;;;14.85;;
4430;SDS011;2228;48.140;11.488;2023-02-08T11:53:24;24.35;;;13.88;;
4430;SDS011;2228;48.140;11.488;2023-02-08T11:56:05;29.73;;;16.90;;
4430;SDS011;2228;48.140;11.488;2023-02-08T11:58:40;25.87;;;15.70;;
4430;SDS011;2228;48.140;11.488;2023-02-08T12:01:15;25.85;;;15.70;;
4430;SDS011;2228;48.140;11.488;2023-02-08T12:03:44;26.23;;;15.05;;
4430;SDS011;2228;48.140;11.488;2023-02-08T12:06:22;28.93;;;16.27;;
4430;SDS011;2228;48.140;11.488;2023-02-08T12:09:12;25.33;;;15.00;;
4430;SDS011;2228;48.140;11.488;2023-02-08T12:11:49;29.20;;;15.52;;
4430;SDS011;2228;48.140;11.488;2023-02-08T12:14:31;27.60;;;16.10;;
4430;SDS011;2228;48.140;11.488;2023-02-08T12:17:13;25.03;;;14.50;;
4430;SDS011;2228;48.140;11.488;2023-02-08T12:20:05;26.73;;;15.68;;
4430;SDS011;2228;48.140;11.488;2023-02-08T12:22:47;27.67;;;15.90;;
4430;SDS011;2228;48.140;11.488;2023-02-08T12:25:26;27.10;;;16.33;;
4430;SDS011;2228;48.140;11.488;2023-02-08T12:27:58;30.80;;;16.70;;
4430;SDS011;2228;48.140;11.488;2023-02-08T12:30:35;29.67;;;16.27;;
4430;SDS011;2228;48.140;11.488;2023-02-08T12:33:20;27.98;;;16.27;;
4430;SDS011;2228;48.140;11.488;2023-02-08T12:38:58;31.00;;;16.77;;
4430;SDS011;2228;48.140;11.488;2023-02-08T12:42:09;29.17;;;16.73;;
4430;SDS011;2228;48.140;11.488;2023-02-08T12:44:55;26.88;;;15.77;;
4430;SDS011;2228;48.140;11.488;2023-02-08T12:47:38;23.65;;;14.95;;
4430;SDS011;2228;48.140;11.488;2023-02-08T12:50:16;25.37;;;16.30;;
4430;SDS011;2228;48.140;11.488;2023-02-08T12:52:53;27.33;;;17.00;;
4430;SDS011;2228;48.140;11.488;2023-02-08T12:55:28;24.35;;;15.43;;
4430;SDS011;2228;48.140;11.488;2023-02-08T12:58:01;24.67;;;15.57;;
4430;SDS011;2228;48.140;11.488;2023-02-08T13:00:47;27.27;;;15.55;;
4430;SDS011;2228;48.140;11.488;2023-02-08T13:03:21;24.35;;;15.80;;
4430;SDS011;2228;48.140;11.488;2023-02-08T13:05:56;23.58;;;15.10;;
4430;SDS011;2228;48.140;11.488;2023-02-08T13:08:25;26.08;;;15.55;;
4430;SDS011;2228;48.140;11.488;2023-02-08T13:10:58;25.85;;;15.93;;
4430;SDS011;2228;48.140;11.488;2023-02-08T13:13:30;26.75;;;15.88;;
4430;SDS011;2228;48.140;11.488;2023-02-08T13:16:00;26.23;;;17.13;;
4430;SDS011;2228;48.140;11.488;2023-02-08T13:18:34;23.25;;;14.75;;
4430;SDS011;2228;48.140;11.488;2023-02-08T13:21:04;27.35;;;15.90;;
4430;SDS011;2228;48.140;11.488;2023-02-08T13:23:37;26.90;;;16.38;;
4430;SDS011;2228;48.140;11.488;2023-02-08T13:26:10;23.67;;;14.40;;
4430;SDS011;2228;48.140;11.488;2023-02-08T13:28:43;24.55;;;14.60;;
4430;SDS011;2228;48.140;11.488;2023-02-08T13:31:16;25.75;;;15.68;;
4430;SDS011;2228;48.140;11.488;2023-02-08T13:33:48;25.15;;;15.70;;
4430;SDS011;2228;48.140;11.488;2023-02-08T13:36:18;24.95;;;15.57;;
4430;SDS011;2228;48.140;11.488;2023-02-08T13:38:49;23.85;;;14.75;;
4430;SDS011;2228;48.140;11.488;2023-02-08T13:41:18;27.50;;;15.00;;
4430;SDS011;2228;48.140;11.488;2023-02-08T13:43:48;27.60;;;15.48;;
4430;SDS011;2228;48.140;11.488;2023-02-08T13:46:17;24.48;;;14.50;;
4430;SDS011;2228;48.140;11.488;2023-02-08T13:48:46;25.02;;;15.30;;
4430;SDS011;2228;48.140;11.488;2023-02-08T13:54:22;24.77;;;14.70;;
4430;SDS011;2228;48.140;11.488;2023-02-08T13:56:51;25.43;;;15.20;;
4430;SDS011;2228;48.140;11.488;2023-02-08T13:59:29;22.92;;;13.10;;
4430;SDS011;2228;48.140;11.488;2023-02-08T14:04:53;21.38;;;13.07;;
4430;SDS011;2228;48.140;11.488;2023-02-08T14:07:45;23.63;;;13.80;;
4430;SDS011;2228;48.140;11.488;2023-02-08T14:10:21;21.63;;;12.65;;
4430;SDS011;2228;48.140;11.488;2023-02-08T14:12:59;21.77;;;12.90;;
4430;SDS011;2228;48.140;11.488;2023-02-08T14:15:35;22.23;;;12.63;;
4430;SDS011;2228;48.140;11.488;2023-02-08T14:18:04;27.50;;;14.68;;
4430;SDS011;2228;48.140;11.488;2023-02-08T14:20:54;21.20;;;13.40;;
4430;SDS011;2228;48.140;11.488;2023-02-08T14:23:28;24.88;;;14.27;;
4430;SDS011;2228;48.140;11.488;2023-02-08T14:25:57;23.25;;;13.82;;
4430;SDS011;2228;48.140;11.488;2023-02-08T14:28:31;22.25;;;13.55;;
4430;SDS011;2228;48.140;11.488;2023-02-08T14:31:01;25.63;;;14.50;;
4430;SDS011;2228;48.140;11.488;2023-02-08T14:33:32;21.80;;;13.50;;
4430;SDS011;2228;48.140;11.488;2023-02-08T14:36:03;22.88;;;14.02;;
4430;SDS011;2228;48.140;11.488;2023-02-08T14:41:50;26.17;;;14.90;;
4430;SDS011;2228;48.140;11.488;2023-02-08T14:50:52;23.27;;;12.90;;
4430;SDS011;2228;48.140;11.488;2023-02-08T14:53:28;21.75;;;13.13;;
4430;SDS011;2228;48.140;11.488;2023-02-08T14:56:04;20.70;;;12.10;;
4430;SDS011;2228;48.140;11.488;2023-02-08T14:58:40;21.63;;;12.65;;
4430;SDS011;2228;48.140;11.488;2023-02-08T15:01:13;21.83;;;12.48;;
4430;SDS011;2228;48.140;11.488;2023-02-08T15:03:43;23.00;;;12.30;;
4430;SDS011;2228;48.140;11.488;2023-02-08T15:09:15;21.20;;;11.75;;
4430;SDS011;2228;48.140;11.488;2023-02-08T15:11:57;22.63;;;13.20;;
4430;SDS011;2228;48.140;11.488;2023-02-08T15:14:26;37.65;;;17.63;;
4430;SDS011;2228;48.140;11.488;2023-02-08T15:16:56;32.17;;;16.05;;
4430;SDS011;2228;48.140;11.488;2023-02-08T15:19:24;21.17;;;11.17;;
4430;SDS011;2228;48.140;11.488;2023-02-08T15:21:53;21.98;;;12.05;;
4430;SDS011;2228;48.140;11.488;2023-02-08T15:24:21;27.43;;;13.23;;
4430;SDS011;2228;48.140;11.488;2023-02-08T15:26:54;23.25;;;12.00;;
4430;SDS011;2228;48.140;11.488;2023-02-08T15:29:22;25.25;;;13.30;;
4430;SDS011;2228;48.140;11.488;2023-02-08T15:31:52;26.02;;;11.82;;
4430;SDS011;2228;48.140;11.488;2023-02-08T15:34:22;25.83;;;13.27;;
4430;SDS011;2228;48.140;11.488;2023-02-08T15:36:51;29.20;;;14.30;;